Latest Weather Observations for Lucas Heights (ANSTO)

IDN60801

Issued at 8:23 am EDT Tuesday 27 October 2020 (issued every 10 minutes, with the page automatically refreshed every 10 minutes)

About weather observations | Map of weather stations | Latest weather observations for NSW | Other Formats
Station Details ID: 066023 Name: LUCAS HEIGHTS (ANSTO) Lat: -34.05 Lon: 150.98 Height: 140.0 m
Data from the previous 72 hours. | See also: Recent months for locations in New South Wales
Date/Time
EDT
Temp
°C
App
Temp
°C
Dew
Point
°C
Rel
Hum
%
Delta-T
°C
Wind Press
QNH
hPa
Press
MSL
hPa
Rain since
9am
mm
Dir  Spd
km/h
Gust
km/h
Spd
kts
Gust
kts
27/08:00am 12.4 8.5 10.9 90 0.8 S 22 35 12 19 1020.2 - 13.1
27/07:45am 12.5 9.1 11.1 91 0.7 S 20 30 11 16 1020.0 - 12.9
27/07:30am 12.5 9.2 11.0 90 0.8 S 19 26 10 14 1019.9 - 12.9
27/07:15am 12.4 9.5 10.9 90 0.8 S 17 28 9 15 1019.7 - 12.5
27/07:00am 12.3 9.4 10.9 91 0.7 S 17 22 9 12 1019.5 - 12.5
27/06:45am 12.2 8.3 10.8 91 0.7 SSE 22 32 12 17 1019.4 - 12.2
27/06:30am 12.2 7.5 10.8 91 0.7 S 26 35 14 19 1019.0 - 12.2
27/06:15am 12.2 8.3 10.8 91 0.7 SSE 22 28 12 15 1019.0 - 11.8
27/06:00am 12.2 8.7 10.8 91 0.7 S 20 26 11 14 1018.9 - 11.6
27/05:45am 12.1 8.2 10.7 91 0.7 S 22 37 12 20 1018.7 - 11.4
27/05:30am 12.0 7.7 10.7 92 0.7 S 24 32 13 17 1018.7 - 11.2
27/05:15am 12.1 7.8 10.7 91 0.7 SSE 24 30 13 16 1018.8 - 11.0
27/05:00am 12.2 8.3 10.8 91 0.7 S 22 33 12 18 1018.5 - 10.8
27/04:45am 12.1 7.4 10.8 92 0.7 SSE 26 35 14 19 1018.4 - 10.6
27/04:30am 12.1 7.1 10.8 92 0.7 SSE 28 32 15 17 1018.5 - 10.4
27/04:15am 12.1 7.1 10.8 92 0.7 SSE 28 41 15 22 1018.6 - 10.3
27/04:00am 12.2 8.3 10.8 91 0.7 S 22 35 12 19 1018.7 - 10.1
27/03:45am 12.4 7.8 11.0 91 0.7 SSE 26 35 14 19 1018.7 - 9.9
27/03:30am 12.6 8.8 11.2 91 0.7 SSE 22 32 12 17 1018.8 - 9.7
27/03:15am 12.5 9.7 11.2 92 0.7 SSE 17 26 9 14 1018.9 - 9.5
27/03:00am 12.4 8.9 11.0 91 0.7 SSE 20 28 11 15 1018.8 - 9.3
27/02:45am 12.3 8.0 10.9 91 0.7 S 24 32 13 17 1018.8 - 9.1
27/02:30am 12.4 7.8 11.0 91 0.7 S 26 35 14 19 1018.8 - 9.1
27/02:15am 12.4 8.2 11.0 91 0.7 SSE 24 32 13 17 1018.8 - 8.9
27/02:00am 12.5 9.1 11.1 91 0.7 S 20 28 11 15 1018.9 - 8.7
27/01:45am 12.5 9.1 11.1 91 0.7 S 20 32 11 17 1019.0 - 8.6
27/01:30am 12.5 7.5 11.1 91 0.7 S 28 39 15 21 1019.0 - 8.5
27/01:15am 12.4 8.2 11.0 91 0.7 S 24 37 13 20 1019.1 - 8.4
27/01:00am 12.4 8.2 11.0 91 0.7 S 24 35 13 19 1019.4 - 8.4
27/12:45am 12.3 7.6 10.8 90 0.8 S 26 32 14 17 1019.7 - 8.2
27/12:30am 12.2 7.5 10.8 91 0.7 S 26 35 14 19 1020.0 - 8.2
27/12:15am 12.2 8.6 10.7 90 0.8 S 20 32 11 17 1020.0 - 8.0
27/12:00am 12.1 7.8 10.7 91 0.7 S 24 32 13 17 1020.1 - 8.0
 
Date/Time
EDT
Temp
°C
App
Temp
°C
Dew
Point
°C
Rel
Hum
%
Delta-T
°C
Wind Press
QNH
hPa
Press
MSL
hPa
Rain since
9am
mm
Dir  Spd
km/h
Gust
km/h
Spd
kts
Gust
kts
26/11:45pm 12.2 7.5 10.7 90 0.8 S 26 37 14 20 1020.2 - 8.0
26/11:30pm 12.2 7.5 10.6 90 0.8 S 26 35 14 19 1020.2 - 7.8
26/11:15pm 12.2 7.9 10.6 90 0.8 S 24 37 13 20 1020.3 - 7.8
26/11:00pm 12.3 8.0 10.7 90 0.8 S 24 37 13 20 1020.3 - 7.6
26/10:45pm 12.3 8.4 10.7 90 0.8 S 22 32 12 17 1020.3 - 7.6
26/10:30pm 12.4 7.3 10.7 89 0.9 SSE 28 46 15 25 1020.4 - 7.6
26/10:15pm 12.7 8.4 10.6 87 1.1 S 24 37 13 20 1020.5 - 7.4
26/10:00pm 12.9 7.4 10.5 85 1.3 SSE 30 43 16 23 1020.5 - 7.4
26/09:45pm 12.8 7.7 10.5 86 1.2 SSE 28 41 15 22 1020.3 - 7.4
26/09:30pm 12.7 6.8 10.5 86 1.1 SSE 32 41 17 22 1020.2 - 7.2
26/09:15pm 12.6 7.1 10.5 87 1.1 SSE 30 41 16 22 1020.2 - 7.2
26/09:00pm 12.4 7.6 10.4 88 1.0 SSE 26 37 14 20 1019.9 - 7.2
26/08:45pm 12.3 7.1 10.3 87 1.0 S 28 37 15 20 1019.7 - 7.2
26/08:30pm 12.2 7.0 10.3 88 1.0 S 28 35 15 19 1019.5 - 7.0
26/08:15pm 12.3 5.8 10.4 88 1.0 S 35 54 19 29 1019.4 - 7.0
26/08:00pm 12.4 6.5 10.4 88 1.0 SSE 32 50 17 27 1019.3 - 7.0
26/07:45pm 12.2 5.7 10.4 89 0.9 SSE 35 48 19 26 1019.0 - 6.8
26/07:30pm 12.0 5.1 10.3 89 0.9 SSE 37 56 20 30 1018.7 - 6.8
26/07:15pm 12.0 5.9 10.4 90 0.8 SSE 33 48 18 26 1018.7 - 6.8
26/07:00pm 12.0 5.9 10.3 89 0.9 SSE 33 52 18 28 1018.8 - 6.7
26/06:45pm 11.8 4.1 10.3 90 0.8 SSE 41 52 22 28 1018.7 - 6.7
26/06:30pm 11.7 5.2 10.3 91 0.7 SSE 35 43 19 23 1018.8 - 6.5
26/06:15pm 11.7 6.5 10.3 91 0.7 SSE 28 44 15 24 1018.9 - 6.5
26/06:00pm 11.7 6.9 10.2 90 0.8 S 26 35 14 19 1018.8 - 6.5
26/05:45pm 11.8 5.8 10.2 90 0.8 SSE 32 41 17 22 1018.7 - 6.3
26/05:30pm 11.8 5.8 10.2 90 0.8 SSE 32 43 17 23 1018.5 - 6.3
26/05:15pm 11.8 5.3 10.2 90 0.8 SSE 35 50 19 27 1018.3 - 6.1
26/05:00pm 11.9 6.7 10.1 89 0.9 SSE 28 39 15 21 1018.3 - 6.1
26/04:45pm 12.0 5.8 10.1 88 1.0 SSE 33 56 18 30 1018.1 - 6.1
26/04:30pm 12.4 5.1 10.3 87 1.1 SSE 39 52 21 28 1017.9 - 5.9
26/04:15pm 12.8 5.2 10.5 86 1.2 SSE 41 57 22 31 1017.6 - 5.9
26/04:00pm 13.4 5.2 10.5 82 1.5 SSE 44 61 24 33 1017.3 - 5.7
26/03:45pm 14.1 6.1 10.4 78 1.9 SSE 43 57 23 31 1017.5 - 5.7
26/03:30pm 13.4 5.4 10.5 82 1.5 SSE 43 59 23 32 1017.6 - 5.5
26/03:15pm 12.9 4.9 10.6 86 1.2 SSE 43 61 23 33 1017.6 - 5.5
26/03:00pm 12.8 3.8 10.1 84 1.4 SSE 48 61 26 33 1017.7 - 5.3
26/02:45pm 14.4 6.6 9.7 73 2.4 SSE 41 59 22 32 1017.7 - 5.3
26/02:30pm 14.7 6.6 9.9 73 2.5 SSE 43 59 23 32 1017.7 - 5.1
26/02:15pm 14.1 5.0 9.7 75 2.3 SSE 48 67 26 36 1017.7 - 4.9
26/02:00pm 14.6 5.4 9.6 72 2.6 SSE 48 59 26 32 1017.5 - 4.8
26/01:45pm 15.1 8.0 9.4 69 3.0 SSE 37 59 20 32 1017.5 - 4.6
26/01:30pm 15.1 6.7 9.5 69 2.9 SSE 44 56 24 30 1017.6 - 4.6
26/01:15pm 14.5 6.4 9.9 74 2.4 SSE 43 59 23 32 1017.8 - 4.2
26/01:00pm 14.1 6.4 10.1 77 2.1 SSE 41 56 22 30 1017.9 - 4.0
26/12:45pm 13.9 5.8 10.2 78 1.9 SSE 43 61 23 33 1018.0 - 3.8
26/12:30pm 13.3 6.1 10.7 84 1.4 SSE 39 54 21 29 1018.2 - 3.6
26/12:15pm 12.8 5.2 10.4 85 1.3 SSE 41 63 22 34 1018.4 - 3.2
26/12:00pm 12.9 4.9 10.4 85 1.3 SSE 43 61 23 33 1018.4 - 3.0
26/11:45am 13.0 5.8 10.4 84 1.4 SE 39 52 21 28 1018.5 - 2.7
26/11:30am 13.4 6.6 10.5 82 1.5 SSE 37 57 20 31 1018.5 - 2.5
26/11:15am 13.4 5.4 10.5 82 1.5 SE 43 59 23 32 1018.5 - 2.1
26/11:00am 13.3 7.0 10.9 85 1.3 SE 35 54 19 29 1018.6 - 1.9
26/10:45am 12.7 8.1 11.1 90 0.8 SE 26 39 14 21 1018.7 - 1.5
26/10:30am 12.5 7.5 11.0 90 0.8 SE 28 43 15 23 1018.8 - 1.3
26/10:15am 12.6 6.6 10.9 89 0.9 SE 33 46 18 25 1018.6 - 1.1
26/10:00am 12.5 4.6 10.8 89 0.9 SSE 43 63 23 34 1018.3 - 0.9
26/09:45am 12.5 3.6 10.5 88 1.0 SSE 48 63 26 34 1018.3 - 0.8
26/09:30am 12.5 4.0 10.7 89 0.9 SE 46 65 25 35 1018.1 - 0.4
26/09:15am 12.5 4.0 10.6 88 1.0 SSE 46 63 25 34 1018.0 - 0.2
26/09:00am 12.4 3.9 10.5 88 1.0 SSE 46 65 25 35 1017.8 - 22.4
26/08:45am 12.6 4.4 10.5 87 1.1 SSE 44 63 24 34 1017.7 - 22.2
26/08:30am 12.9 3.6 10.4 85 1.3 SSE 50 61 27 33 1017.5 - 22.0
26/08:15am 13.3 4.1 10.9 85 1.3 SSE 50 69 27 37 1017.5 - 21.7
26/08:00am 13.2 4.4 11.1 87 1.1 SSE 48 65 26 35 1017.3 - 21.5
26/07:45am 13.1 4.7 11.1 88 1.1 SSE 46 61 25 33 1017.2 - 21.3
26/07:30am 13.0 5.0 11.0 88 1.1 SSE 44 63 24 34 1017.1 - 20.9
26/07:15am 13.0 5.2 11.1 88 1.0 SE 43 56 23 30 1016.9 - 20.5
26/07:00am 13.0 6.0 11.2 89 1.0 SE 39 52 21 28 1016.7 - 20.1
26/06:45am 13.0 5.5 10.9 87 1.1 SE 41 65 22 35 1016.5 - 19.8
26/06:30am 12.8 4.9 10.9 88 1.0 SE 43 72 23 39 1016.3 - 19.6
26/06:15am 12.7 4.6 10.8 88 1.0 SSE 44 61 24 33 1016.0 - 19.2
26/06:00am 12.8 3.5 10.7 87 1.1 SSE 50 63 27 34 1015.9 - 18.8
26/05:45am 13.0 3.8 10.8 86 1.2 SSE 50 69 27 37 1015.7 - 18.4
26/05:30am 12.8 4.0 10.8 88 1.1 SE 48 69 26 37 1015.5 - 18.1
26/05:15am 12.5 5.0 10.9 90 0.8 SSE 41 59 22 32 1015.5 - 17.5
26/05:00am 12.6 3.8 11.0 90 0.8 SE 48 69 26 37 1015.3 - 17.1
26/04:45am 12.7 4.3 11.2 91 0.8 SSE 46 65 25 35 1015.3 - 16.7
26/04:30am 12.9 5.2 11.4 91 0.8 SE 43 69 23 37 1015.3 - 16.1
26/04:15am 12.9 5.6 11.4 91 0.8 SE 41 54 22 29 1015.4 - 15.8
26/04:00am 12.9 5.2 11.4 91 0.8 SE 43 74 23 40 1015.2 - 15.2
26/03:45am 12.9 3.8 11.4 91 0.8 SE 50 70 27 38 1015.2 - 14.8
26/03:30am 13.0 6.1 11.5 91 0.8 SE 39 59 21 32 1015.2 - 14.4
26/03:15am 13.1 7.0 11.7 91 0.8 SE 35 52 19 28 1015.1 - 14.1
26/03:00am 13.1 5.4 11.6 91 0.8 SE 43 56 23 30 1014.9 - 13.7
26/02:45am 13.3 5.5 11.7 90 0.9 SE 44 59 24 32 1014.9 - 13.3
26/02:30am 13.3 6.8 11.8 91 0.8 SE 37 59 20 32 1015.0 - 12.9
26/02:15am 13.3 7.8 11.8 91 0.8 SE 32 59 17 32 1015.2 - 12.5
26/02:00am 13.4 7.0 11.9 91 0.8 SE 37 59 20 32 1015.2 - 12.2
26/01:45am 13.3 5.5 11.8 91 0.8 SE 44 57 24 31 1015.3 - 12.0
26/01:30am 13.2 6.3 11.7 91 0.8 SE 39 63 21 34 1015.4 - 11.6
26/01:15am 13.1 5.8 11.5 90 0.9 SE 41 59 22 32 1015.4 - 11.4
26/01:00am 12.9 5.9 11.2 89 0.9 SE 39 54 21 29 1015.8 - 11.2
26/12:45am 12.9 5.1 11.3 90 0.9 SE 43 59 23 32 1015.9 - 11.0
26/12:30am 13.1 4.9 11.6 91 0.8 SSE 46 65 25 35 1015.9 - 10.8
26/12:15am 13.0 5.7 11.6 91 0.7 SSE 41 59 22 32 1015.8 - 10.6
26/12:00am 12.9 5.6 11.5 91 0.7 SSE 41 56 22 30 1016.0 - 10.4
 
Date/Time
EDT
Temp
°C
App
Temp
°C
Dew
Point
°C
Rel
Hum
%
Delta-T
°C
Wind Press
QNH
hPa
Press
MSL
hPa
Rain since
9am
mm
Dir  Spd
km/h
Gust
km/h
Spd
kts
Gust
kts
25/11:45pm 13.0 5.7 11.5 91 0.8 SSE 41 50 22 27 1016.1 - 10.3
25/11:30pm 12.9 5.9 11.3 90 0.9 SSE 39 52 21 28 1016.2 - 10.3
25/11:15pm 12.8 6.2 11.2 90 0.8 SSE 37 57 20 31 1016.5 - 10.1
25/11:00pm 12.7 6.0 11.0 89 0.9 SSE 37 54 20 29 1016.4 - 9.9
25/10:45pm 12.7 4.8 10.8 88 1.0 SSE 43 59 23 32 1016.3 - 9.9
25/10:30pm 13.0 5.0 11.1 88 1.0 SSE 44 59 24 32 1016.5 - 9.7
25/10:15pm 13.3 5.5 11.1 86 1.2 SSE 43 46 23 25 1016.6 - 9.5
25/10:00pm 13.2 6.2 11.1 87 1.1 SSE 39 46 21 25 1016.6 - 9.3
25/09:45pm 13.3 5.9 11.1 86 1.2 SSE 41 57 22 31 1016.5 - 9.1
25/09:30pm 13.3 4.9 11.2 87 1.1 SSE 46 59 25 32 1016.4 - 9.1
25/09:15pm 13.2 5.4 11.1 87 1.1 SSE 43 56 23 30 1016.1 - 8.9
25/09:00pm 13.2 5.3 10.9 86 1.2 SSE 43 56 23 30 1016.1 - 8.7
25/08:45pm 13.1 5.6 10.7 85 1.3 SSE 41 50 22 27 1016.0 - 8.5
25/08:30pm 13.1 5.7 11.1 88 1.1 SSE 41 61 22 33 1015.8 - 8.4
25/08:15pm 13.0 6.4 11.2 89 1.0 SSE 37 54 20 29 1015.6 - 8.0
25/08:00pm 12.8 6.1 11.1 89 0.9 SSE 37 56 20 30 1015.3 - 7.8
25/07:45pm 12.6 5.6 11.1 91 0.8 SSE 39 57 21 31 1015.1 - 7.4
25/07:30pm 12.3 4.8 10.8 90 0.8 SSE 41 59 22 32 1014.6 - 7.0
25/07:15pm 12.0 4.0 10.6 91 0.7 SSE 43 63 23 34 1014.2 - 6.7
25/07:00pm 11.9 2.6 10.4 90 0.8 SSE 50 63 27 34 1013.7 - 6.1
25/06:45pm 11.8 3.6 10.3 90 0.8 SSE 44 59 24 32 1013.7 - 5.5
25/06:30pm 11.7 4.8 10.2 90 0.8 SSE 37 50 20 27 1014.2 - 4.9
25/06:15pm 11.7 7.2 10.2 90 0.8 S 24 32 13 17 1015.0 - 4.2
25/06:00pm 11.7 7.8 9.6 87 1.1 SSW 20 28 11 15 1015.3 - 3.6
25/05:45pm 11.6 7.1 10.1 90 0.8 S 24 37 13 20 1014.6 - 2.9
25/05:30pm 11.3 5.2 9.9 91 0.7 S 32 46 17 25 1013.7 - 2.3
25/05:15pm 11.3 5.0 9.7 90 0.8 S 33 41 18 22 1014.0 - 1.9
25/05:00pm 11.2 5.1 9.7 90 0.8 S 32 43 17 23 1014.4 - 1.5
25/04:45pm 11.2 6.2 9.7 90 0.8 S 26 35 14 19 1014.3 - 1.1
25/04:30pm 11.2 5.8 9.6 90 0.8 S 28 39 15 21 1014.1 - 0.8
25/04:15pm 11.3 5.5 9.6 89 0.9 S 30 37 16 20 1013.8 - 0.6
25/04:00pm 11.3 5.5 9.5 89 0.9 S 30 39 16 21 1013.7 - 0.4
25/03:45pm 11.6 5.8 9.5 87 1.1 S 30 43 16 23 1013.8 - 0.2
25/03:30pm 11.9 6.1 9.3 84 1.3 S 30 43 16 23 1013.8 - 0.0
25/03:15pm 12.4 6.5 9.2 81 1.6 S 30 43 16 23 1013.7 - 0.0
25/03:00pm 12.5 6.3 9.2 80 1.7 S 32 46 17 25 1013.7 - 0.0
25/02:45pm 12.5 7.0 9.3 81 1.6 S 28 43 15 23 1013.8 - 0.0
25/02:30pm 12.5 7.0 9.3 81 1.6 S 28 43 15 23 1013.8 - 0.0
25/02:15pm 12.9 7.0 9.2 78 1.9 S 30 41 16 22 1013.7 - 0.0
25/02:00pm 13.0 7.2 9.3 78 1.9 S 30 43 16 23 1013.8 - 0.0
25/01:45pm 13.1 7.3 9.3 78 1.9 S 30 44 16 24 1013.8 - 0.0
25/01:30pm 13.1 7.6 9.1 77 2.0 S 28 46 15 25 1013.9 - 0.0
25/01:15pm 12.8 7.3 9.2 79 1.8 S 28 41 15 22 1013.9 - 0.0
25/01:00pm 12.8 6.5 8.9 77 2.0 S 32 43 17 23 1013.8 - 0.0
25/12:45pm 12.8 6.5 8.9 77 2.0 S 32 46 17 25 1013.8 - 0.0
25/12:30pm 12.7 6.4 9.0 78 1.9 SSE 32 46 17 25 1013.8 - 0.0
25/12:15pm 12.4 5.5 8.9 79 1.8 S 35 50 19 27 1013.9 - 0.0
25/12:00pm 12.5 6.2 9.0 79 1.8 S 32 43 17 23 1014.0 - 0.0
25/11:45am 12.5 6.1 8.7 77 1.9 SSE 32 48 17 26 1014.0 - 0.0
25/11:30am 12.7 6.7 8.7 76 2.0 S 30 43 16 23 1014.1 - 0.0
25/11:15am 12.9 6.9 8.6 75 2.2 S 30 41 16 22 1014.1 - 0.0
25/11:00am 13.0 6.4 8.7 75 2.2 SSE 33 50 18 27 1014.0 - 0.0
25/10:45am 12.7 6.1 8.7 76 2.0 SSE 33 54 18 29 1014.0 - 0.0
25/10:30am 12.6 7.1 9.0 79 1.8 SSE 28 39 15 21 1013.9 - 0.0
25/10:15am 12.6 6.3 9.0 79 1.8 SSE 32 44 17 24 1013.8 - 0.0
25/10:00am 12.7 6.2 9.1 79 1.8 S 33 48 18 26 1013.8 - 0.0
25/09:45am 12.9 5.7 9.2 78 1.9 SSE 37 50 20 27 1013.4 - 0.0
25/09:30am 12.9 4.4 9.2 78 1.9 SSE 44 61 24 33 1012.9 - 0.0
25/09:15am 12.5 4.6 9.2 80 1.7 SSE 41 56 22 30 1012.9 - 0.0
25/09:00am 12.8 5.2 9.2 79 1.8 SSE 39 54 21 29 1012.8 - 22.8
25/08:45am 12.8 5.2 9.1 78 1.9 SSE 39 54 21 29 1012.6 - 22.8
25/08:30am 12.9 4.5 9.1 78 1.9 SSE 43 54 23 29 1012.3 - 22.8
25/08:15am 12.9 6.0 8.8 76 2.1 SSE 35 46 19 25 1012.2 - 22.8
25/08:00am 12.8 4.4 8.9 77 2.0 SSE 43 57 23 31 1011.9 - 22.8
25/07:45am 12.6 6.2 9.2 80 1.7 SSE 33 52 18 28 1011.7 - 22.8
25/07:30am 12.3 4.5 9.6 83 1.4 SSE 41 54 22 29 1011.3 - 22.8
25/07:15am 12.1 4.7 9.9 86 1.1 SSE 39 54 21 29 1011.1 - 22.8
25/07:00am 12.1 5.1 10.1 87 1.0 SSE 37 52 20 28 1010.9 - 22.8
25/06:45am 12.1 4.8 10.2 88 1.0 SSE 39 52 21 28 1010.6 - 22.8
25/06:30am 12.1 6.0 10.3 89 0.9 SSE 33 41 18 22 1010.5 - 22.8
25/06:15am 12.2 5.7 10.4 89 0.9 SSE 35 50 19 27 1010.1 - 22.8
25/06:00am 12.3 4.1 10.5 89 0.9 SSE 44 56 24 30 1009.7 - 22.8
25/05:45am 12.3 5.5 10.6 89 0.9 SSE 37 48 20 26 1009.3 - 22.8
25/05:30am 12.3 6.3 10.7 90 0.8 SSE 33 50 18 27 1009.0 - 22.8
25/05:15am 12.3 6.3 10.7 90 0.8 SSE 33 43 18 23 1008.8 - 22.8
25/05:00am 12.3 5.5 10.7 90 0.8 SSE 37 50 20 27 1008.6 - 22.8
25/04:45am 12.4 5.2 10.7 89 0.9 SSE 39 46 21 25 1008.4 - 22.8
25/04:30am 12.4 6.0 10.7 89 0.9 SSE 35 43 19 23 1008.3 - 22.8
25/04:15am 12.4 6.2 10.1 86 1.2 SSE 33 44 18 24 1008.2 - 22.8
25/04:00am 12.5 7.1 10.8 89 0.9 SSE 30 41 16 22 1008.1 - 22.8
25/03:45am 12.6 6.4 10.0 84 1.3 SSE 33 44 18 24 1008.0 - 22.8
25/03:30am 12.5 5.4 10.9 90 0.8 SSE 39 46 21 25 1007.6 - 22.8
25/03:15am 12.5 5.6 10.4 87 1.1 SSE 37 50 20 27 1007.5 - 22.8
25/03:00am 12.5 5.8 10.9 90 0.8 SSE 37 50 20 27 1007.3 - 22.8
25/02:45am 12.5 5.6 10.2 86 1.2 SSE 37 50 20 27 1007.3 - 22.8
25/02:30am 12.6 5.1 11.0 90 0.8 SSE 41 54 22 29 1007.3 - 22.8
25/02:15am 12.6 5.9 11.0 90 0.8 SSE 37 46 20 25 1007.3 - 22.4
25/02:00am 12.8 5.0 11.1 89 0.9 SSE 43 54 23 29 1007.3 - 22.2
25/01:45am 12.9 5.5 11.2 89 0.9 SSE 41 50 22 27 1007.3 - 21.8
25/01:30am 12.9 4.9 11.2 89 0.9 SSE 44 59 24 32 1007.2 - 21.5
25/01:15am 12.9 5.5 11.3 90 0.9 SSE 41 50 22 27 1006.9 - 21.1
25/01:00am 13.1 6.5 11.5 90 0.9 SSE 37 50 20 27 1006.9 - 20.5
25/12:45am 13.2 7.5 11.7 91 0.8 SSE 33 50 18 27 1007.0 - 19.6
25/12:30am 13.3 6.8 11.8 91 0.8 SSE 37 54 20 29 1006.8 - 18.2
25/12:15am 13.6 7.6 12.2 91 0.8 SSE 35 50 19 27 1006.7 - 16.5
25/12:00am 13.9 8.4 12.5 91 0.8 SSE 33 43 18 23 1006.5 - 14.1
 
Date/Time
EDT
Temp
°C
App
Temp
°C
Dew
Point
°C
Rel
Hum
%
Delta-T
°C
Wind Press
QNH
hPa
Press
MSL
hPa
Rain since
9am
mm
Dir  Spd
km/h
Gust
km/h
Spd
kts
Gust
kts
24/11:45pm 14.4 9.0 12.8 90 0.9 SSE 33 44 18 24 1006.3 - 11.6
24/11:30pm 15.1 8.4 13.5 90 0.9 SSE 41 56 22 30 1006.2 - 10.1
24/11:15pm 16.7 12.3 15.2 91 0.9 SSE 32 46 17 25 1005.8 - 9.9
24/11:00pm 17.8 18.3 16.6 93 0.7 NW 9 13 5 7 1005.2 - 9.9
24/10:45pm 17.9 16.9 16.7 93 0.7 NW 17 17 9 9 1005.0 - 9.9
24/10:30pm 18.0 17.5 16.8 93 0.7 NW 15 17 8 9 1005.1 - 9.9
24/10:15pm 18.1 17.6 16.9 93 0.7 NNW 15 17 8 9 1005.2 - 9.9
24/10:00pm 18.2 17.7 17.0 93 0.7 NNW 15 19 8 10 1005.0 - 9.9
24/09:45pm 18.3 19.4 17.1 93 0.7 NNW 7 11 4 6 1004.7 - 9.9
24/09:30pm 18.4 19.2 17.2 93 0.7 N 9 13 5 7 1004.8 - 9.9
24/09:15pm 18.6 18.7 17.4 93 0.7 N 13 19 7 10 1004.7 - 9.9
24/09:00pm 18.7 19.2 17.5 93 0.7 N 11 19 6 10 1004.4 - 9.9
24/08:45pm 18.7 19.6 17.5 93 0.7 NNW 9 13 5 7 1004.2 - 9.9
24/08:30pm 18.8 19.0 17.6 93 0.7 NNW 13 19 7 10 1003.9 - 9.9
24/08:15pm 18.8 19.0 17.6 93 0.7 N 13 22 7 12 1003.7 - 9.7
24/08:00pm 18.9 19.1 17.7 93 0.7 NNW 13 22 7 12 1003.8 - 9.3
24/07:45pm 19.0 19.3 17.8 93 0.7 N 13 19 7 10 1003.5 - 8.7
24/07:30pm 19.0 19.6 17.8 93 0.7 N 11 17 6 9 1003.6 - 8.4
24/07:15pm 19.0 20.4 17.8 93 0.7 NNE 7 13 4 7 1003.3 - 8.0
24/07:00pm 19.0 19.2 17.7 92 0.8 NE 13 17 7 9 1002.9 - 7.6
24/06:45pm 19.0 18.8 17.7 92 0.8 N 15 19 8 10 1003.2 - 7.4
24/06:30pm 19.1 19.0 17.8 92 0.8 N 15 20 8 11 1003.0 - 7.0
24/06:15pm 19.3 20.0 18.0 92 0.8 - 11 15 6 8 1003.0 - 6.6
24/06:00pm 19.5 19.9 18.1 92 0.9 NNW 13 22 7 12 1003.3 - 6.3
24/05:45pm 19.7 20.5 18.2 91 0.9 NNW 11 19 6 10 1003.4 - 5.7
24/05:30pm 19.8 20.7 18.3 91 0.9 NNW 11 19 6 10 1003.2 - 5.3
24/05:15pm 19.9 19.7 18.4 91 0.9 NNW 17 20 9 11 1003.1 - 5.1
24/05:00pm 19.9 20.1 18.5 92 0.9 NNW 15 22 8 12 1002.8 - 4.6
24/04:45pm 20.1 20.7 18.6 91 0.9 N 13 17 7 9 1002.6 - 4.6
24/04:30pm 20.1 21.1 18.6 91 0.9 N 11 17 6 9 1002.7 - 4.6
24/04:15pm 19.9 20.8 18.5 92 0.9 N 11 19 6 10 1002.6 - 4.6
24/04:00pm 19.7 20.1 18.2 91 0.9 N 13 19 7 10 1002.4 - 4.6
24/03:45pm 19.6 20.0 18.1 91 0.9 N 13 19 7 10 1002.4 - 4.4
24/03:30pm 19.6 19.6 18.0 90 1.0 NNW 15 20 8 11 1002.6 - 4.4
24/03:15pm 19.6 19.1 17.9 90 1.1 NNW 17 26 9 14 1002.8 - 4.4
24/03:00pm 19.7 18.9 17.9 89 1.1 NNW 19 22 10 12 1003.3 - 4.0
24/02:45pm 20.2 19.6 18.4 89 1.1 NNW 19 28 10 15 1003.5 - 3.4
24/02:30pm 20.4 19.6 18.4 88 1.3 NW 20 30 11 16 1003.7 - 2.7
24/02:15pm 20.8 19.2 18.4 86 1.5 NW 24 35 13 19 1003.8 - 2.1
24/02:00pm 21.3 20.0 18.2 82 1.9 NNW 22 28 12 15 1003.6 - 0.8
24/01:45pm 22.1 21.1 17.9 77 2.6 NNW 20 28 11 15 1003.5 - 0.4
24/01:30pm 23.6 21.2 17.4 68 3.9 NNW 26 33 14 18 1003.3 - 0.0
24/01:15pm 24.3 22.9 18.0 68 4.0 NNW 22 28 12 15 1003.3 - 0.0
24/01:00pm 23.8 22.8 17.9 69 3.7 NNW 20 28 11 15 1003.4 - 0.0
24/12:45pm 23.6 21.8 17.9 70 3.6 NNW 24 35 13 19 1003.5 - 0.0
24/12:30pm 23.5 21.9 18.3 72 3.3 NNW 24 37 13 20 1003.7 - 0.0
24/12:15pm 22.9 20.5 18.3 75 2.9 NNW 28 37 15 20 1004.1 - 0.0
24/12:00pm 22.2 20.7 18.5 79 2.3 NNW 24 35 13 19 1004.3 - 0.0
24/11:45am 21.7 20.5 18.4 81 2.1 NNW 22 37 12 20 1004.6 - 0.0
24/11:30am 21.6 19.9 18.0 80 2.2 NNW 24 33 13 18 1004.7 - 0.0
24/11:15am 21.6 19.3 17.7 78 2.4 NNW 26 35 14 19 1004.7 - 0.0
24/11:00am 22.0 20.5 17.8 77 2.6 NNW 22 35 12 19 1004.8 - 0.0
24/10:45am 22.0 19.0 17.8 77 2.6 NNW 30 37 16 20 1005.0 - 0.0
24/10:30am 21.6 19.3 17.7 78 2.4 NNW 26 35 14 19 1005.4 - 0.0
24/10:15am 21.5 18.9 17.7 79 2.4 NNW 28 37 15 20 1005.4 - 0.0
24/10:00am 21.5 20.1 17.9 80 2.2 NNW 22 35 12 19 1005.5 - 0.0
24/09:45am 21.1 20.2 17.7 81 2.1 NNW 19 28 10 15 1005.5 - 0.0
24/09:30am 20.8 20.3 17.7 82 1.9 NNW 17 24 9 13 1005.6 - 0.0
24/09:15am 20.7 20.2 17.7 83 1.9 NNW 17 26 9 14 1005.9 - 0.0
24/09:00am 20.2 19.6 17.5 84 1.7 NNW 17 26 9 14 1006.1 - 4.0
24/08:45am 19.8 19.6 17.7 88 1.3 NNW 15 20 8 11 1006.1 - 4.0
24/08:30am 19.2 19.5 17.8 92 0.9 NNW 13 19 7 10 1006.2 - 4.0

Other formats

Comma delimited format used in spreadsheet applications
http://www.bom.gov.au/fwo/IDN60801/IDN60801.95757.axf

JavaScript Object Notation format (JSON) in row-major order
http://www.bom.gov.au/fwo/IDN60801/IDN60801.95757.json

Data quality

Most of these data are generated automatically and are frequently updated. Quality checks on data are not normally performed. It is possible for incorrect values to appear. Refer to information at About Latest Weather Observations and please check the disclaimer before using these data.